Terminal Aerodrome Forecast
Issued by NWS Milwaukee/Sullivan, WI

Home | Current Version | Previous Version | Text Only | Print | Product List | Glossary On
Versions: 1 2 3 4 5 6 7 8 9 10 11 12 13 14 15 16 17 18 19 20 21 22 23 24
000
FTUS43 KMKX 260520
TAFMSN
TAF
KMSN 260520Z 2606/2706 VRB03KT P6SM VCSH SCT060 BKN120
     FM260900 14004KT P6SM SCT060 BKN150
     FM261800 15008KT P6SM VCSH BKN090
     FM270000 12006KT P6SM BKN035=

USA.gov is the U.S. government's official web portal to all federal, state and local government web resources and services.